sensor_id;sensor_type;location;lat;lon;timestamp;temperature;humidity
26721;HTU21D;15950;51.112;6.966;2023-03-31T00:00:13;11.17;81.17
26721;HTU21D;15950;51.112;6.966;2023-03-31T00:03:13;11.23;81.46
26721;HTU21D;15950;51.112;6.966;2023-03-31T00:06:13;11.22;81.43
26721;HTU21D;15950;51.112;6.966;2023-03-31T00:09:14;11.14;81.52
26721;HTU21D;15950;51.112;6.966;2023-03-31T00:12:15;11.18;81.66
26721;HTU21D;15950;51.112;6.966;2023-03-31T00:15:13;11.23;81.95
26721;HTU21D;15950;51.112;6.966;2023-03-31T00:18:13;11.15;82.61
26721;HTU21D;15950;51.112;6.966;2023-03-31T00:21:16;11.16;83.45
26721;HTU21D;15950;51.112;6.966;2023-03-31T00:24:14;11.14;83.87
26721;HTU21D;15950;51.112;6.966;2023-03-31T00:27:13;11.07;84.14
26721;HTU21D;15950;51.112;6.966;2023-03-31T00:30:14;11.15;83.90
26721;HTU21D;15950;51.112;6.966;2023-03-31T00:33:13;11.18;84.20
26721;HTU21D;15950;51.112;6.966;2023-03-31T00:36:13;11.17;84.97
26721;HTU21D;15950;51.112;6.966;2023-03-31T00:39:15;11.13;85.58
26721;HTU21D;15950;51.112;6.966;2023-03-31T00:42:13;11.09;86.25
26721;HTU21D;15950;51.112;6.966;2023-03-31T00:48:17;11.08;87.47
26721;HTU21D;15950;51.112;6.966;2023-03-31T00:51:13;11.07;87.66
26721;HTU21D;15950;51.112;6.966;2023-03-31T00:54:14;10.92;89.05
26721;HTU21D;15950;51.112;6.966;2023-03-31T00:57:14;10.80;89.81
26721;HTU21D;15950;51.112;6.966;2023-03-31T01:00:14;10.90;89.76
26721;HTU21D;15950;51.112;6.966;2023-03-31T01:03:14;10.92;89.79
26721;HTU21D;15950;51.112;6.966;2023-03-31T01:06:15;10.81;90.29
26721;HTU21D;15950;51.112;6.966;2023-03-31T01:09:14;10.84;90.68
26721;HTU21D;15950;51.112;6.966;2023-03-31T01:12:15;10.80;90.73
26721;HTU21D;15950;51.112;6.966;2023-03-31T01:15:13;10.76;90.76
26721;HTU21D;15950;51.112;6.966;2023-03-31T01:18:14;10.72;91.05
26721;HTU21D;15950;51.112;6.966;2023-03-31T01:42:27;10.74;90.57
26721;HTU21D;15950;51.112;6.966;2023-03-31T01:48:20;10.76;90.18
26721;HTU21D;15950;51.112;6.966;2023-03-31T01:51:21;10.80;90.05
26721;HTU21D;15950;51.112;6.966;2023-03-31T01:57:23;10.85;89.90
26721;HTU21D;15950;51.112;6.966;2023-03-31T02:00:16;10.88;89.80
26721;HTU21D;15950;51.112;6.966;2023-03-31T02:06:18;10.78;90.18
26721;HTU21D;15950;51.112;6.966;2023-03-31T02:09:19;10.91;89.93
26721;HTU21D;15950;51.112;6.966;2023-03-31T02:12:14;10.89;90.02
26721;HTU21D;15950;51.112;6.966;2023-03-31T02:15:18;10.82;90.32
26721;HTU21D;15950;51.112;6.966;2023-03-31T02:18:17;10.83;90.61
26721;HTU21D;15950;51.112;6.966;2023-03-31T02:21:14;10.75;90.92
26721;HTU21D;15950;51.112;6.966;2023-03-31T02:24:14;10.72;91.25
26721;HTU21D;15950;51.112;6.966;2023-03-31T02:30:14;10.70;91.27
26721;HTU21D;15950;51.112;6.966;2023-03-31T02:33:13;10.78;91.29
26721;HTU21D;15950;51.112;6.966;2023-03-31T02:36:13;10.76;91.16
26721;HTU21D;15950;51.112;6.966;2023-03-31T02:39:17;10.65;91.60
26721;HTU21D;15950;51.112;6.966;2023-03-31T02:42:13;10.58;91.83
26721;HTU21D;15950;51.112;6.966;2023-03-31T02:51:24;10.65;91.89
26721;HTU21D;15950;51.112;6.966;2023-03-31T03:18:13;10.57;92.53
26721;HTU21D;15950;51.112;6.966;2023-03-31T03:21:13;10.56;92.58
26721;HTU21D;15950;51.112;6.966;2023-03-31T03:24:14;10.50;92.66
26721;HTU21D;15950;51.112;6.966;2023-03-31T03:27:13;10.54;92.68
26721;HTU21D;15950;51.112;6.966;2023-03-31T03:30:14;10.46;93.14
26721;HTU21D;15950;51.112;6.966;2023-03-31T03:33:13;10.46;93.17
26721;HTU21D;15950;51.112;6.966;2023-03-31T03:36:13;10.45;93.18
26721;HTU21D;15950;51.112;6.966;2023-03-31T03:39:13;10.41;93.47
26721;HTU21D;15950;51.112;6.966;2023-03-31T03:42:13;10.30;93.75
26721;HTU21D;15950;51.112;6.966;2023-03-31T03:45:13;10.36;93.79
26721;HTU21D;15950;51.112;6.966;2023-03-31T03:48:13;10.33;93.78
26721;HTU21D;15950;51.112;6.966;2023-03-31T03:51:13;10.34;93.84
26721;HTU21D;15950;51.112;6.966;2023-03-31T03:54:13;10.42;93.45
26721;HTU21D;15950;51.112;6.966;2023-03-31T03:57:13;10.42;93.35
26721;HTU21D;15950;51.112;6.966;2023-03-31T04:00:13;10.41;93.24
26721;HTU21D;15950;51.112;6.966;2023-03-31T04:03:13;10.42;93.03
26721;HTU21D;15950;51.112;6.966;2023-03-31T04:06:13;10.47;92.66
26721;HTU21D;15950;51.112;6.966;2023-03-31T04:09:13;10.44;92.66
26721;HTU21D;15950;51.112;6.966;2023-03-31T04:12:13;10.50;92.40
26721;HTU21D;15950;51.112;6.966;2023-03-31T04:15:14;10.46;92.58
26721;HTU21D;15950;51.112;6.966;2023-03-31T04:18:14;10.46;92.53
26721;HTU21D;15950;51.112;6.966;2023-03-31T04:21:14;10.46;92.37
26721;HTU21D;15950;51.112;6.966;2023-03-31T04:24:13;10.43;92.66
26721;HTU21D;15950;51.112;6.966;2023-03-31T04:27:13;10.39;92.75
26721;HTU21D;15950;51.112;6.966;2023-03-31T04:30:13;10.38;92.66
26721;HTU21D;15950;51.112;6.966;2023-03-31T04:33:13;10.41;92.64
26721;HTU21D;15950;51.112;6.966;2023-03-31T04:36:13;10.41;92.57
26721;HTU21D;15950;51.112;6.966;2023-03-31T04:39:18;10.46;92.17
26721;HTU21D;15950;51.112;6.966;2023-03-31T04:42:13;10.52;91.74
26721;HTU21D;15950;51.112;6.966;2023-03-31T04:45:13;10.54;91.71
26721;HTU21D;15950;51.112;6.966;2023-03-31T04:48:13;10.56;91.73
26721;HTU21D;15950;51.112;6.966;2023-03-31T04:51:13;10.60;91.70
26721;HTU21D;15950;51.112;6.966;2023-03-31T04:54:13;10.54;91.68
26721;HTU21D;15950;51.112;6.966;2023-03-31T04:57:13;10.54;91.51
26721;HTU21D;15950;51.112;6.966;2023-03-31T05:00:14;10.38;91.82
26721;HTU21D;15950;51.112;6.966;2023-03-31T05:03:13;10.38;92.15
26721;HTU21D;15950;51.112;6.966;2023-03-31T05:06:15;10.27;92.46
26721;HTU21D;15950;51.112;6.966;2023-03-31T05:09:13;10.32;92.24
26721;HTU21D;15950;51.112;6.966;2023-03-31T05:12:13;10.21;92.38
26721;HTU21D;15950;51.112;6.966;2023-03-31T05:15:13;10.18;92.34
26721;HTU21D;15950;51.112;6.966;2023-03-31T05:18:13;10.18;92.43
26721;HTU21D;15950;51.112;6.966;2023-03-31T05:21:18;10.09;92.56
26721;HTU21D;15950;51.112;6.966;2023-03-31T05:24:13;10.11;92.59
26721;HTU21D;15950;51.112;6.966;2023-03-31T05:27:15;10.10;92.59
26721;HTU21D;15950;51.112;6.966;2023-03-31T05:30:14;10.06;92.64
26721;HTU21D;15950;51.112;6.966;2023-03-31T05:33:13;10.06;92.53
26721;HTU21D;15950;51.112;6.966;2023-03-31T05:36:15;10.06;92.54
26721;HTU21D;15950;51.112;6.966;2023-03-31T05:39:13;10.07;92.21
26721;HTU21D;15950;51.112;6.966;2023-03-31T05:42:13;10.16;91.69
26721;HTU21D;15950;51.112;6.966;2023-03-31T05:45:13;10.09;91.82
26721;HTU21D;15950;51.112;6.966;2023-03-31T05:48:13;10.21;91.20
26721;HTU21D;15950;51.112;6.966;2023-03-31T05:51:13;10.19;91.41
26721;HTU21D;15950;51.112;6.966;2023-03-31T05:54:13;10.11;91.35
26721;HTU21D;15950;51.112;6.966;2023-03-31T05:57:13;10.15;91.49
26721;HTU21D;15950;51.112;6.966;2023-03-31T06:00:14;10.16;91.66
26721;HTU21D;15950;51.112;6.966;2023-03-31T06:03:13;10.13;91.66
26721;HTU21D;15950;51.112;6.966;2023-03-31T06:06:14;10.11;91.82
26721;HTU21D;15950;51.112;6.966;2023-03-31T06:09:13;10.08;91.95
26721;HTU21D;15950;51.112;6.966;2023-03-31T06:12:13;10.11;91.61
26721;HTU21D;15950;51.112;6.966;2023-03-31T06:15:13;10.13;91.40
26721;HTU21D;15950;51.112;6.966;2023-03-31T06:18:13;10.22;91.35
26721;HTU21D;15950;51.112;6.966;2023-03-31T06:21:15;10.10;91.72
26721;HTU21D;15950;51.112;6.966;2023-03-31T06:24:13;10.03;92.24
26721;HTU21D;15950;51.112;6.966;2023-03-31T06:27:13;10.04;92.15
26721;HTU21D;15950;51.112;6.966;2023-03-31T06:30:13;10.04;92.36
26721;HTU21D;15950;51.112;6.966;2023-03-31T06:33:13;10.07;92.24
26721;HTU21D;15950;51.112;6.966;2023-03-31T06:36:15;10.02;92.12
26721;HTU21D;15950;51.112;6.966;2023-03-31T06:39:13;10.02;92.26
26721;HTU21D;15950;51.112;6.966;2023-03-31T06:42:13;10.04;92.51
26721;HTU21D;15950;51.112;6.966;2023-03-31T06:45:13;9.95;91.96
26721;HTU21D;15950;51.112;6.966;2023-03-31T06:48:13;10.08;90.25
26721;HTU21D;15950;51.112;6.966;2023-03-31T06:51:13;10.02;89.89
26721;HTU21D;15950;51.112;6.966;2023-03-31T06:54:13;9.96;90.24
26721;HTU21D;15950;51.112;6.966;2023-03-31T06:57:13;9.88;90.31
26721;HTU21D;15950;51.112;6.966;2023-03-31T07:00:14;9.96;89.90
26721;HTU21D;15950;51.112;6.966;2023-03-31T07:03:14;9.91;90.35
26721;HTU21D;15950;51.112;6.966;2023-03-31T07:06:13;10.02;90.04
26721;HTU21D;15950;51.112;6.966;2023-03-31T07:09:13;10.06;90.15
26721;HTU21D;15950;51.112;6.966;2023-03-31T07:12:13;9.97;90.44
26721;HTU21D;15950;51.112;6.966;2023-03-31T07:15:13;10.00;90.16
26721;HTU21D;15950;51.112;6.966;2023-03-31T07:18:14;10.04;90.16
26721;HTU21D;15950;51.112;6.966;2023-03-31T07:21:13;10.08;89.70
26721;HTU21D;15950;51.112;6.966;2023-03-31T07:24:13;10.11;89.34
26721;HTU21D;15950;51.112;6.966;2023-03-31T07:27:13;10.17;89.63
26721;HTU21D;15950;51.112;6.966;2023-03-31T07:30:16;10.22;89.15
26721;HTU21D;15950;51.112;6.966;2023-03-31T07:33:16;10.29;88.49
26721;HTU21D;15950;51.112;6.966;2023-03-31T07:36:13;10.36;87.77
26721;HTU21D;15950;51.112;6.966;2023-03-31T07:39:13;10.38;88.25
26721;HTU21D;15950;51.112;6.966;2023-03-31T07:42:13;10.43;87.47
26721;HTU21D;15950;51.112;6.966;2023-03-31T07:45:15;10.49;87.39
26721;HTU21D;15950;51.112;6.966;2023-03-31T07:48:13;10.56;87.16
26721;HTU21D;15950;51.112;6.966;2023-03-31T07:51:14;10.65;86.98
26721;HTU21D;15950;51.112;6.966;2023-03-31T07:54:13;10.70;87.25
26721;HTU21D;15950;51.112;6.966;2023-03-31T07:57:13;10.85;86.21
26721;HTU21D;15950;51.112;6.966;2023-03-31T08:00:14;10.96;86.32
26721;HTU21D;15950;51.112;6.966;2023-03-31T08:03:13;11.21;85.33
26721;HTU21D;15950;51.112;6.966;2023-03-31T08:06:18;11.32;84.75
26721;HTU21D;15950;51.112;6.966;2023-03-31T08:09:13;11.43;83.63
26721;HTU21D;15950;51.112;6.966;2023-03-31T08:12:13;11.57;83.16
26721;HTU21D;15950;51.112;6.966;2023-03-31T08:15:14;11.64;82.77
26721;HTU21D;15950;51.112;6.966;2023-03-31T08:18:13;11.60;82.00
26721;HTU21D;15950;51.112;6.966;2023-03-31T08:21:13;11.59;81.79
26721;HTU21D;15950;51.112;6.966;2023-03-31T08:24:13;11.64;81.78
26721;HTU21D;15950;51.112;6.966;2023-03-31T08:27:13;11.71;81.91
26721;HTU21D;15950;51.112;6.966;2023-03-31T08:30:13;11.73;81.46
26721;HTU21D;15950;51.112;6.966;2023-03-31T08:33:13;11.71;82.12
26721;HTU21D;15950;51.112;6.966;2023-03-31T08:36:13;11.77;81.99
26721;HTU21D;15950;51.112;6.966;2023-03-31T08:39:13;11.67;82.03
26721;HTU21D;15950;51.112;6.966;2023-03-31T08:49:07;11.63;83.29
26721;HTU21D;15950;51.112;6.966;2023-03-31T08:51:23;11.70;82.97
26721;HTU21D;15950;51.112;6.966;2023-03-31T08:57:19;11.81;81.75
26721;HTU21D;15950;51.112;6.966;2023-03-31T09:00:15;11.93;81.32
26721;HTU21D;15950;51.112;6.966;2023-03-31T09:03:27;12.09;80.89
26721;HTU21D;15950;51.112;6.966;2023-03-31T09:06:21;12.29;79.30
26721;HTU21D;15950;51.112;6.966;2023-03-31T09:12:20;12.74;78.23
26721;HTU21D;15950;51.112;6.966;2023-03-31T09:24:17;13.09;76.06
26721;HTU21D;15950;51.112;6.966;2023-03-31T09:27:14;13.15;74.65
26721;HTU21D;15950;51.112;6.966;2023-03-31T09:30:20;13.23;74.58
26721;HTU21D;15950;51.112;6.966;2023-03-31T09:33:39;13.33;75.61
26721;HTU21D;15950;51.112;6.966;2023-03-31T09:36:18;13.40;73.83
26721;HTU21D;15950;51.112;6.966;2023-03-31T09:39:13;13.67;72.67
26721;HTU21D;15950;51.112;6.966;2023-03-31T09:42:13;13.70;72.19
26721;HTU21D;15950;51.112;6.966;2023-03-31T09:45:18;13.72;71.24
26721;HTU21D;15950;51.112;6.966;2023-03-31T09:48:17;13.70;70.52
26721;HTU21D;15950;51.112;6.966;2023-03-31T09:51:19;13.66;71.01
26721;HTU21D;15950;51.112;6.966;2023-03-31T09:57:21;14.01;69.86
26721;HTU21D;15950;51.112;6.966;2023-03-31T10:00:17;14.23;69.94
26721;HTU21D;15950;51.112;6.966;2023-03-31T10:03:13;14.29;68.63
26721;HTU21D;15950;51.112;6.966;2023-03-31T10:06:17;14.17;68.19
26721;HTU21D;15950;51.112;6.966;2023-03-31T10:09:14;14.03;67.09
26721;HTU21D;15950;51.112;6.966;2023-03-31T10:12:16;14.00;67.30
26721;HTU21D;15950;51.112;6.966;2023-03-31T10:18:18;13.91;68.86
26721;HTU21D;15950;51.112;6.966;2023-03-31T10:21:20;13.86;69.12
26721;HTU21D;15950;51.112;6.966;2023-03-31T10:24:17;14.01;69.33
26721;HTU21D;15950;51.112;6.966;2023-03-31T10:30:22;14.23;67.94
26721;HTU21D;15950;51.112;6.966;2023-03-31T10:33:19;14.14;67.50
26721;HTU21D;15950;51.112;6.966;2023-03-31T10:39:15;14.33;65.17
26721;HTU21D;15950;51.112;6.966;2023-03-31T10:42:21;14.34;64.47
26721;HTU21D;15950;51.112;6.966;2023-03-31T10:48:20;14.75;64.19
26721;HTU21D;15950;51.112;6.966;2023-03-31T10:51:20;14.66;64.10
26721;HTU21D;15950;51.112;6.966;2023-03-31T10:54:13;14.63;64.41
26721;HTU21D;15950;51.112;6.966;2023-03-31T10:57:14;14.58;64.07
26721;HTU21D;15950;51.112;6.966;2023-03-31T11:30:37;11.47;84.68
26721;HTU21D;15950;51.112;6.966;2023-03-31T11:45:22;11.82;83.41
26721;HTU21D;15950;51.112;6.966;2023-03-31T11:51:22;12.12;82.60
26721;HTU21D;15950;51.112;6.966;2023-03-31T11:54:38;12.08;83.00
26721;HTU21D;15950;51.112;6.966;2023-03-31T12:00:19;12.14;82.76
26721;HTU21D;15950;51.112;6.966;2023-03-31T12:03:22;12.21;81.49
26721;HTU21D;15950;51.112;6.966;2023-03-31T12:06:16;12.40;81.43
26721;HTU21D;15950;51.112;6.966;2023-03-31T12:12:23;12.52;81.52
26721;HTU21D;15950;51.112;6.966;2023-03-31T12:15:20;12.59;81.55
26721;HTU21D;15950;51.112;6.966;2023-03-31T12:18:14;12.52;80.88
26721;HTU21D;15950;51.112;6.966;2023-03-31T12:21:13;12.51;82.07
26721;HTU21D;15950;51.112;6.966;2023-03-31T12:24:13;12.50;83.01
26721;HTU21D;15950;51.112;6.966;2023-03-31T12:30:24;12.62;82.46
26721;HTU21D;15950;51.112;6.966;2023-03-31T12:33:24;12.71;82.34
26721;HTU21D;15950;51.112;6.966;2023-03-31T12:57:19;12.78;80.93
26721;HTU21D;15950;51.112;6.966;2023-03-31T13:12:19;13.10;76.68
26721;HTU21D;15950;51.112;6.966;2023-03-31T13:15:13;13.21;76.54
26721;HTU21D;15950;51.112;6.966;2023-03-31T13:18:18;13.24;75.53
26721;HTU21D;15950;51.112;6.966;2023-03-31T13:21:13;13.31;75.94
26721;HTU21D;15950;51.112;6.966;2023-03-31T13:24:13;13.46;75.56
26721;HTU21D;15950;51.112;6.966;2023-03-31T13:31:01;13.61;75.28
26721;HTU21D;15950;51.112;6.966;2023-03-31T13:33:23;13.60;73.98
26721;HTU21D;15950;51.112;6.966;2023-03-31T13:39:19;13.63;72.83
26721;HTU21D;15950;51.112;6.966;2023-03-31T13:45:23;13.81;72.08
26721;HTU21D;15950;51.112;6.966;2023-03-31T14:12:19;13.81;71.06
26721;HTU21D;15950;51.112;6.966;2023-03-31T14:15:18;13.83;70.19
26721;HTU21D;15950;51.112;6.966;2023-03-31T14:39:20;13.86;65.33
26721;HTU21D;15950;51.112;6.966;2023-03-31T14:42:22;13.86;64.02
26721;HTU21D;15950;51.112;6.966;2023-03-31T14:48:14;13.82;64.31
26721;HTU21D;15950;51.112;6.966;2023-03-31T14:51:14;13.78;63.85
26721;HTU21D;15950;51.112;6.966;2023-03-31T14:54:17;13.69;64.21
26721;HTU21D;15950;51.112;6.966;2023-03-31T14:57:18;13.78;63.98
26721;HTU21D;15950;51.112;6.966;2023-03-31T15:00:24;13.73;64.09
26721;HTU21D;15950;51.112;6.966;2023-03-31T15:03:14;13.81;63.88
26721;HTU21D;15950;51.112;6.966;2023-03-31T15:06:13;13.76;63.90
26721;HTU21D;15950;51.112;6.966;2023-03-31T15:09:25;13.80;63.99
26721;HTU21D;15950;51.112;6.966;2023-03-31T15:12:14;13.80;63.31
26721;HTU21D;15950;51.112;6.966;2023-03-31T15:15:14;13.87;62.95
26721;HTU21D;15950;51.112;6.966;2023-03-31T15:18:15;14.00;62.90
26721;HTU21D;15950;51.112;6.966;2023-03-31T15:21:22;13.82;64.37
26721;HTU21D;15950;51.112;6.966;2023-03-31T15:24:13;13.48;68.33
26721;HTU21D;15950;51.112;6.966;2023-03-31T15:30:19;12.30;83.76
26721;HTU21D;15950;51.112;6.966;2023-03-31T15:33:20;12.22;85.16
26721;HTU21D;15950;51.112;6.966;2023-03-31T15:36:13;12.03;85.74
26721;HTU21D;15950;51.112;6.966;2023-03-31T15:39:13;11.97;85.79
26721;HTU21D;15950;51.112;6.966;2023-03-31T15:42:13;12.10;85.78
26721;HTU21D;15950;51.112;6.966;2023-03-31T15:48:19;12.00;85.84
26721;HTU21D;15950;51.112;6.966;2023-03-31T15:57:16;11.85;86.58
26721;HTU21D;15950;51.112;6.966;2023-03-31T16:03:22;11.93;86.02
26721;HTU21D;15950;51.112;6.966;2023-03-31T16:09:18;11.81;85.45
26721;HTU21D;15950;51.112;6.966;2023-03-31T16:12:19;11.90;85.61
26721;HTU21D;15950;51.112;6.966;2023-03-31T16:15:19;11.89;85.93
26721;HTU21D;15950;51.112;6.966;2023-03-31T16:18:17;11.92;84.84
26721;HTU21D;15950;51.112;6.966;2023-03-31T16:21:13;11.90;84.79
26721;HTU21D;15950;51.112;6.966;2023-03-31T16:24:13;11.83;84.00
26721;HTU21D;15950;51.112;6.966;2023-03-31T16:27:13;11.95;83.58
26721;HTU21D;15950;51.112;6.966;2023-03-31T16:30:19;11.93;82.61
26721;HTU21D;15950;51.112;6.966;2023-03-31T16:33:15;12.07;81.73
26721;HTU21D;15950;51.112;6.966;2023-03-31T16:36:13;12.03;80.86
26721;HTU21D;15950;51.112;6.966;2023-03-31T16:39:13;12.01;79.98
26721;HTU21D;15950;51.112;6.966;2023-03-31T16:42:13;12.00;80.17
26721;HTU21D;15950;51.112;6.966;2023-03-31T16:45:13;11.99;79.77
26721;HTU21D;15950;51.112;6.966;2023-03-31T16:48:14;11.99;79.21
26721;HTU21D;15950;51.112;6.966;2023-03-31T16:51:13;12.00;79.50
26721;HTU21D;15950;51.112;6.966;2023-03-31T16:54:13;12.04;79.78
26721;HTU21D;15950;51.112;6.966;2023-03-31T16:57:13;12.01;79.46
26721;HTU21D;15950;51.112;6.966;2023-03-31T17:00:13;11.93;79.36
26721;HTU21D;15950;51.112;6.966;2023-03-31T17:03:13;11.92;79.27
26721;HTU21D;15950;51.112;6.966;2023-03-31T17:06:13;11.97;79.25
26721;HTU21D;15950;51.112;6.966;2023-03-31T17:09:13;11.93;79.06
26721;HTU21D;15950;51.112;6.966;2023-03-31T17:12:13;11.95;78.97
26721;HTU21D;15950;51.112;6.966;2023-03-31T17:15:13;11.96;79.10
26721;HTU21D;15950;51.112;6.966;2023-03-31T17:18:13;11.92;79.23
26721;HTU21D;15950;51.112;6.966;2023-03-31T17:21:15;12.00;79.26
26721;HTU21D;15950;51.112;6.966;2023-03-31T17:24:13;11.98;79.87
26721;HTU21D;15950;51.112;6.966;2023-03-31T17:27:13;11.96;80.07
26721;HTU21D;15950;51.112;6.966;2023-03-31T17:30:14;11.88;79.88
26721;HTU21D;15950;51.112;6.966;2023-03-31T17:33:14;11.85;79.97
26721;HTU21D;15950;51.112;6.966;2023-03-31T17:36:13;11.87;79.62
26721;HTU21D;15950;51.112;6.966;2023-03-31T17:39:13;11.91;79.25
26721;HTU21D;15950;51.112;6.966;2023-03-31T17:42:13;11.87;79.09
26721;HTU21D;15950;51.112;6.966;2023-03-31T17:45:13;11.91;78.82
26721;HTU21D;15950;51.112;6.966;2023-03-31T17:48:13;11.90;78.08
26721;HTU21D;15950;51.112;6.966;2023-03-31T17:51:15;11.90;77.44
26721;HTU21D;15950;51.112;6.966;2023-03-31T17:54:13;11.92;77.40
26721;HTU21D;15950;51.112;6.966;2023-03-31T17:57:13;11.81;77.85
26721;HTU21D;15950;51.112;6.966;2023-03-31T18:00:13;11.80;77.82
26721;HTU21D;15950;51.112;6.966;2023-03-31T18:03:13;11.72;77.92
26721;HTU21D;15950;51.112;6.966;2023-03-31T18:06:13;11.71;78.37
26721;HTU21D;15950;51.112;6.966;2023-03-31T18:09:13;11.72;78.61
26721;HTU21D;15950;51.112;6.966;2023-03-31T18:12:13;11.72;78.31
26721;HTU21D;15950;51.112;6.966;2023-03-31T18:15:13;11.80;78.30
26721;HTU21D;15950;51.112;6.966;2023-03-31T18:18:13;11.72;78.84
26721;HTU21D;15950;51.112;6.966;2023-03-31T18:21:13;11.65;78.56
26721;HTU21D;15950;51.112;6.966;2023-03-31T18:24:13;11.63;78.52
26721;HTU21D;15950;51.112;6.966;2023-03-31T18:27:13;11.64;78.31
26721;HTU21D;15950;51.112;6.966;2023-03-31T18:30:13;11.62;78.47
26721;HTU21D;15950;51.112;6.966;2023-03-31T18:33:13;11.69;77.95
26721;HTU21D;15950;51.112;6.966;2023-03-31T18:36:17;11.61;78.11
26721;HTU21D;15950;51.112;6.966;2023-03-31T18:39:13;11.67;77.55
26721;HTU21D;15950;51.112;6.966;2023-03-31T18:42:13;11.68;77.67
26721;HTU21D;15950;51.112;6.966;2023-03-31T18:45:13;11.64;77.69
26721;HTU21D;15950;51.112;6.966;2023-03-31T18:48:13;11.62;78.13
26721;HTU21D;15950;51.112;6.966;2023-03-31T18:51:13;11.59;78.35
26721;HTU21D;15950;51.112;6.966;2023-03-31T18:54:13;11.55;78.15
26721;HTU21D;15950;51.112;6.966;2023-03-31T18:57:13;11.52;78.28
26721;HTU21D;15950;51.112;6.966;2023-03-31T19:00:13;11.52;78.32
26721;HTU21D;15950;51.112;6.966;2023-03-31T19:03:13;11.53;78.26
26721;HTU21D;15950;51.112;6.966;2023-03-31T19:06:13;11.43;78.86
26721;HTU21D;15950;51.112;6.966;2023-03-31T19:09:13;11.46;78.91
26721;HTU21D;15950;51.112;6.966;2023-03-31T19:12:13;11.38;79.15
26721;HTU21D;15950;51.112;6.966;2023-03-31T19:15:13;11.44;79.15
26721;HTU21D;15950;51.112;6.966;2023-03-31T19:18:13;11.41;79.43
26721;HTU21D;15950;51.112;6.966;2023-03-31T19:21:13;11.31;79.76
26721;HTU21D;15950;51.112;6.966;2023-03-31T19:24:13;11.32;80.22
26721;HTU21D;15950;51.112;6.966;2023-03-31T19:27:13;11.27;80.77
26721;HTU21D;15950;51.112;6.966;2023-03-31T19:30:17;11.19;81.07
26721;HTU21D;15950;51.112;6.966;2023-03-31T19:33:13;11.14;81.43
26721;HTU21D;15950;51.112;6.966;2023-03-31T19:36:13;11.13;81.33
26721;HTU21D;15950;51.112;6.966;2023-03-31T19:39:13;11.06;81.64
26721;HTU21D;15950;51.112;6.966;2023-03-31T19:42:13;11.15;81.45
26721;HTU21D;15950;51.112;6.966;2023-03-31T19:45:13;11.10;81.33
26721;HTU21D;15950;51.112;6.966;2023-03-31T19:48:13;11.14;81.45
26721;HTU21D;15950;51.112;6.966;2023-03-31T19:51:13;11.13;81.23
26721;HTU21D;15950;51.112;6.966;2023-03-31T19:54:13;11.07;81.18
26721;HTU21D;15950;51.112;6.966;2023-03-31T19:57:13;11.15;80.52
26721;HTU21D;15950;51.112;6.966;2023-03-31T20:00:13;11.11;80.34
26721;HTU21D;15950;51.112;6.966;2023-03-31T20:03:13;11.09;80.36
26721;HTU21D;15950;51.112;6.966;2023-03-31T20:06:13;11.10;80.23
26721;HTU21D;15950;51.112;6.966;2023-03-31T20:09:13;11.08;79.96
26721;HTU21D;15950;51.112;6.966;2023-03-31T20:12:13;11.09;80.33
26721;HTU21D;15950;51.112;6.966;2023-03-31T20:15:13;11.09;80.30
26721;HTU21D;15950;51.112;6.966;2023-03-31T20:18:13;11.02;80.42
26721;HTU21D;15950;51.112;6.966;2023-03-31T20:21:15;10.97;80.75
26721;HTU21D;15950;51.112;6.966;2023-03-31T20:24:15;10.96;81.30
26721;HTU21D;15950;51.112;6.966;2023-03-31T20:27:13;10.87;82.39
26721;HTU21D;15950;51.112;6.966;2023-03-31T20:30:13;10.86;82.85
26721;HTU21D;15950;51.112;6.966;2023-03-31T20:33:13;10.82;83.07
26721;HTU21D;15950;51.112;6.966;2023-03-31T20:36:15;10.79;83.23
26721;HTU21D;15950;51.112;6.966;2023-03-31T20:39:14;10.79;83.62
26721;HTU21D;15950;51.112;6.966;2023-03-31T20:42:13;10.65;83.49
26721;HTU21D;15950;51.112;6.966;2023-03-31T20:45:13;10.69;83.58
26721;HTU21D;15950;51.112;6.966;2023-03-31T20:48:13;10.64;83.89
26721;HTU21D;15950;51.112;6.966;2023-03-31T20:51:15;10.62;83.73
26721;HTU21D;15950;51.112;6.966;2023-03-31T20:54:13;10.60;84.39
26721;HTU21D;15950;51.112;6.966;2023-03-31T20:57:12;10.59;84.90
26721;HTU21D;15950;51.112;6.966;2023-03-31T21:00:13;10.53;85.03
26721;HTU21D;15950;51.112;6.966;2023-03-31T21:03:13;10.55;84.66
26721;HTU21D;15950;51.112;6.966;2023-03-31T21:06:16;10.58;84.42
26721;HTU21D;15950;51.112;6.966;2023-03-31T21:09:14;10.62;84.05
26721;HTU21D;15950;51.112;6.966;2023-03-31T21:12:12;10.65;83.68
26721;HTU21D;15950;51.112;6.966;2023-03-31T21:15:13;10.61;83.65
26721;HTU21D;15950;51.112;6.966;2023-03-31T21:18:13;10.69;83.56
26721;HTU21D;15950;51.112;6.966;2023-03-31T21:21:14;10.64;83.12
26721;HTU21D;15950;51.112;6.966;2023-03-31T21:24:13;10.67;82.36
26721;HTU21D;15950;51.112;6.966;2023-03-31T21:27:13;10.70;82.36
26721;HTU21D;15950;51.112;6.966;2023-03-31T21:30:13;10.70;82.20
26721;HTU21D;15950;51.112;6.966;2023-03-31T21:33:13;10.76;82.06
26721;HTU21D;15950;51.112;6.966;2023-03-31T21:36:16;10.77;81.92
26721;HTU21D;15950;51.112;6.966;2023-03-31T21:39:12;10.76;81.88
26721;HTU21D;15950;51.112;6.966;2023-03-31T21:42:12;10.75;81.81
26721;HTU21D;15950;51.112;6.966;2023-03-31T21:45:13;10.75;81.76
26721;HTU21D;15950;51.112;6.966;2023-03-31T21:48:13;10.74;81.81
26721;HTU21D;15950;51.112;6.966;2023-03-31T21:51:13;10.79;81.64
26721;HTU21D;15950;51.112;6.966;2023-03-31T21:54:13;10.75;81.58
26721;HTU21D;15950;51.112;6.966;2023-03-31T21:57:13;10.85;80.73
26721;HTU21D;15950;51.112;6.966;2023-03-31T22:00:13;10.87;80.28
26721;HTU21D;15950;51.112;6.966;2023-03-31T22:03:13;10.84;80.24
26721;HTU21D;15950;51.112;6.966;2023-03-31T22:06:12;10.81;80.35
26721;HTU21D;15950;51.112;6.966;2023-03-31T22:09:12;10.79;80.35
26721;HTU21D;15950;51.112;6.966;2023-03-31T22:12:13;10.74;80.64
26721;HTU21D;15950;51.112;6.966;2023-03-31T22:15:12;10.75;80.69
26721;HTU21D;15950;51.112;6.966;2023-03-31T22:18:13;10.70;81.15
26721;HTU21D;15950;51.112;6.966;2023-03-31T22:21:15;10.74;81.16
26721;HTU21D;15950;51.112;6.966;2023-03-31T22:24:12;10.72;81.83
26721;HTU21D;15950;51.112;6.966;2023-03-31T22:27:12;10.68;82.12
26721;HTU21D;15950;51.112;6.966;2023-03-31T22:30:13;10.62;82.68
26721;HTU21D;15950;51.112;6.966;2023-03-31T22:33:12;10.60;82.63
26721;HTU21D;15950;51.112;6.966;2023-03-31T22:36:13;10.63;82.32
26721;HTU21D;15950;51.112;6.966;2023-03-31T22:39:13;10.59;82.77
26721;HTU21D;15950;51.112;6.966;2023-03-31T22:42:13;10.53;83.18
26721;HTU21D;15950;51.112;6.966;2023-03-31T22:45:12;10.62;83.32
26721;HTU21D;15950;51.112;6.966;2023-03-31T22:48:13;10.52;83.82
26721;HTU21D;15950;51.112;6.966;2023-03-31T22:51:12;10.40;84.45
26721;HTU21D;15950;51.112;6.966;2023-03-31T22:54:14;10.46;84.30
26721;HTU21D;15950;51.112;6.966;2023-03-31T22:57:12;10.43;84.44
26721;HTU21D;15950;51.112;6.966;2023-03-31T23:00:13;10.42;84.25
26721;HTU21D;15950;51.112;6.966;2023-03-31T23:03:12;10.40;84.27